sensor_id;sensor_type;location;lat;lon;timestamp;P1;durP1;ratioP1;P2;durP2;ratioP2
5157;SDS011;2598;52.364;9.772;2022-07-21T00:01:06;14.90;;;8.27;;
5157;SDS011;2598;52.364;9.772;2022-07-21T00:03:32;15.70;;;8.07;;
5157;SDS011;2598;52.364;9.772;2022-07-21T00:05:58;21.33;;;9.27;;
5157;SDS011;2598;52.364;9.772;2022-07-21T00:08:25;17.63;;;9.03;;
5157;SDS011;2598;52.364;9.772;2022-07-21T00:10:51;15.53;;;8.10;;
5157;SDS011;2598;52.364;9.772;2022-07-21T00:13:17;17.80;;;8.40;;
5157;SDS011;2598;52.364;9.772;2022-07-21T00:15:43;13.97;;;8.53;;
5157;SDS011;2598;52.364;9.772;2022-07-21T00:18:10;16.70;;;8.07;;
5157;SDS011;2598;52.364;9.772;2022-07-21T00:20:36;15.97;;;8.47;;
5157;SDS011;2598;52.364;9.772;2022-07-21T00:23:02;18.70;;;9.20;;
5157;SDS011;2598;52.364;9.772;2022-07-21T00:25:28;16.70;;;8.20;;
5157;SDS011;2598;52.364;9.772;2022-07-21T00:27:54;19.70;;;7.87;;
5157;SDS011;2598;52.364;9.772;2022-07-21T00:30:20;22.63;;;8.30;;
5157;SDS011;2598;52.364;9.772;2022-07-21T00:32:46;18.57;;;9.20;;
5157;SDS011;2598;52.364;9.772;2022-07-21T00:35:12;20.70;;;8.80;;
5157;SDS011;2598;52.364;9.772;2022-07-21T00:37:39;18.00;;;8.50;;
5157;SDS011;2598;52.364;9.772;2022-07-21T00:40:05;18.67;;;8.70;;
5157;SDS011;2598;52.364;9.772;2022-07-21T00:42:33;20.60;;;7.80;;
5157;SDS011;2598;52.364;9.772;2022-07-21T00:44:59;14.80;;;7.50;;
5157;SDS011;2598;52.364;9.772;2022-07-21T00:47:26;12.40;;;6.50;;
5157;SDS011;2598;52.364;9.772;2022-07-21T00:49:52;13.40;;;6.87;;
5157;SDS011;2598;52.364;9.772;2022-07-21T00:52:18;18.17;;;7.20;;
5157;SDS011;2598;52.364;9.772;2022-07-21T00:54:44;18.60;;;7.30;;
5157;SDS011;2598;52.364;9.772;2022-07-21T00:57:11;15.80;;;7.40;;
5157;SDS011;2598;52.364;9.772;2022-07-21T00:59:37;17.67;;;7.83;;
5157;SDS011;2598;52.364;9.772;2022-07-21T01:02:03;14.40;;;7.90;;
5157;SDS011;2598;52.364;9.772;2022-07-21T01:04:29;16.70;;;7.93;;
5157;SDS011;2598;52.364;9.772;2022-07-21T01:06:55;18.03;;;7.30;;
5157;SDS011;2598;52.364;9.772;2022-07-21T01:09:22;15.80;;;7.80;;
5157;SDS011;2598;52.364;9.772;2022-07-21T01:11:48;14.77;;;8.47;;
5157;SDS011;2598;52.364;9.772;2022-07-21T01:14:14;16.67;;;8.00;;
5157;SDS011;2598;52.364;9.772;2022-07-21T01:16:41;17.03;;;8.30;;
5157;SDS011;2598;52.364;9.772;2022-07-21T01:19:08;12.70;;;7.20;;
5157;SDS011;2598;52.364;9.772;2022-07-21T01:21:35;15.33;;;7.93;;
5157;SDS011;2598;52.364;9.772;2022-07-21T01:24:03;14.50;;;6.77;;
5157;SDS011;2598;52.364;9.772;2022-07-21T01:26:29;14.03;;;5.90;;
5157;SDS011;2598;52.364;9.772;2022-07-21T01:28:56;11.93;;;5.43;;
5157;SDS011;2598;52.364;9.772;2022-07-21T01:31:22;13.90;;;5.30;;
5157;SDS011;2598;52.364;9.772;2022-07-21T01:33:48;13.33;;;5.60;;
5157;SDS011;2598;52.364;9.772;2022-07-21T01:36:14;10.40;;;4.73;;
5157;SDS011;2598;52.364;9.772;2022-07-21T01:38:40;13.00;;;4.80;;
5157;SDS011;2598;52.364;9.772;2022-07-21T01:41:25;16.47;;;4.70;;
5157;SDS011;2598;52.364;9.772;2022-07-21T01:43:54;11.83;;;4.40;;
5157;SDS011;2598;52.364;9.772;2022-07-21T01:46:20;11.43;;;4.53;;
5157;SDS011;2598;52.364;9.772;2022-07-21T01:48:46;11.63;;;4.33;;
5157;SDS011;2598;52.364;9.772;2022-07-21T01:51:12;12.50;;;3.70;;
5157;SDS011;2598;52.364;9.772;2022-07-21T01:53:39;10.30;;;4.20;;
5157;SDS011;2598;52.364;9.772;2022-07-21T01:56:05;10.27;;;4.00;;
5157;SDS011;2598;52.364;9.772;2022-07-21T01:58:31;10.10;;;4.00;;
5157;SDS011;2598;52.364;9.772;2022-07-21T02:00:57;10.50;;;3.37;;
5157;SDS011;2598;52.364;9.772;2022-07-21T02:03:23;10.17;;;4.17;;
5157;SDS011;2598;52.364;9.772;2022-07-21T02:05:49;11.70;;;3.63;;
5157;SDS011;2598;52.364;9.772;2022-07-21T02:08:15;10.83;;;3.40;;
5157;SDS011;2598;52.364;9.772;2022-07-21T02:10:41;12.47;;;4.07;;
5157;SDS011;2598;52.364;9.772;2022-07-21T02:13:07;9.57;;;3.23;;
5157;SDS011;2598;52.364;9.772;2022-07-21T02:15:33;9.90;;;3.40;;
5157;SDS011;2598;52.364;9.772;2022-07-21T02:17:59;10.30;;;3.83;;
5157;SDS011;2598;52.364;9.772;2022-07-21T02:20:25;10.60;;;3.40;;
5157;SDS011;2598;52.364;9.772;2022-07-21T02:22:51;9.57;;;3.00;;
5157;SDS011;2598;52.364;9.772;2022-07-21T02:25:18;9.40;;;2.87;;
5157;SDS011;2598;52.364;9.772;2022-07-21T02:27:45;9.60;;;3.50;;
5157;SDS011;2598;52.364;9.772;2022-07-21T02:30:12;8.70;;;3.20;;
5157;SDS011;2598;52.364;9.772;2022-07-21T02:32:38;8.60;;;2.80;;
5157;SDS011;2598;52.364;9.772;2022-07-21T02:35:04;13.70;;;3.80;;
5157;SDS011;2598;52.364;9.772;2022-07-21T02:37:31;9.37;;;3.30;;
5157;SDS011;2598;52.364;9.772;2022-07-21T02:39:57;9.03;;;3.50;;
5157;SDS011;2598;52.364;9.772;2022-07-21T02:42:23;11.77;;;3.23;;
5157;SDS011;2598;52.364;9.772;2022-07-21T02:44:49;17.20;;;3.37;;
5157;SDS011;2598;52.364;9.772;2022-07-21T02:47:15;10.00;;;3.47;;
5157;SDS011;2598;52.364;9.772;2022-07-21T02:49:41;10.07;;;3.80;;
5157;SDS011;2598;52.364;9.772;2022-07-21T02:52:07;10.60;;;3.77;;
5157;SDS011;2598;52.364;9.772;2022-07-21T02:54:33;10.00;;;4.00;;
5157;SDS011;2598;52.364;9.772;2022-07-21T02:56:59;11.10;;;3.67;;
5157;SDS011;2598;52.364;9.772;2022-07-21T02:59:25;9.80;;;3.70;;
5157;SDS011;2598;52.364;9.772;2022-07-21T03:01:51;9.87;;;4.13;;
5157;SDS011;2598;52.364;9.772;2022-07-21T03:04:17;10.07;;;4.03;;
5157;SDS011;2598;52.364;9.772;2022-07-21T03:06:43;10.30;;;4.50;;
5157;SDS011;2598;52.364;9.772;2022-07-21T03:09:09;11.20;;;4.63;;
5157;SDS011;2598;52.364;9.772;2022-07-21T03:11:35;10.77;;;4.33;;
5157;SDS011;2598;52.364;9.772;2022-07-21T03:14:01;10.20;;;4.30;;
5157;SDS011;2598;52.364;9.772;2022-07-21T03:16:27;10.57;;;4.73;;
5157;SDS011;2598;52.364;9.772;2022-07-21T03:18:53;11.90;;;5.50;;
5157;SDS011;2598;52.364;9.772;2022-07-21T03:21:19;13.23;;;5.60;;
5157;SDS011;2598;52.364;9.772;2022-07-21T03:23:45;20.60;;;6.77;;
5157;SDS011;2598;52.364;9.772;2022-07-21T03:26:12;14.90;;;6.70;;
5157;SDS011;2598;52.364;9.772;2022-07-21T03:28:39;16.57;;;7.07;;
5157;SDS011;2598;52.364;9.772;2022-07-21T03:31:05;16.57;;;6.73;;
5157;SDS011;2598;52.364;9.772;2022-07-21T03:33:31;14.50;;;6.87;;
5157;SDS011;2598;52.364;9.772;2022-07-21T03:35:58;14.70;;;7.63;;
5157;SDS011;2598;52.364;9.772;2022-07-21T03:38:24;16.47;;;6.93;;
5157;SDS011;2598;52.364;9.772;2022-07-21T03:40:51;13.73;;;7.10;;
5157;SDS011;2598;52.364;9.772;2022-07-21T03:43:17;14.80;;;8.03;;
5157;SDS011;2598;52.364;9.772;2022-07-21T03:45:43;21.10;;;7.30;;
5157;SDS011;2598;52.364;9.772;2022-07-21T03:48:09;17.40;;;7.77;;
5157;SDS011;2598;52.364;9.772;2022-07-21T03:50:36;17.43;;;8.70;;
5157;SDS011;2598;52.364;9.772;2022-07-21T03:53:03;18.57;;;8.50;;
5157;SDS011;2598;52.364;9.772;2022-07-21T03:55:29;17.27;;;8.80;;
5157;SDS011;2598;52.364;9.772;2022-07-21T03:58:00;16.37;;;8.03;;
5157;SDS011;2598;52.364;9.772;2022-07-21T04:00:28;15.50;;;8.37;;
5157;SDS011;2598;52.364;9.772;2022-07-21T04:02:54;18.77;;;8.87;;
5157;SDS011;2598;52.364;9.772;2022-07-21T04:05:21;16.53;;;8.40;;
5157;SDS011;2598;52.364;9.772;2022-07-21T04:07:48;18.63;;;10.00;;
5157;SDS011;2598;52.364;9.772;2022-07-21T04:10:16;16.33;;;8.50;;
5157;SDS011;2598;52.364;9.772;2022-07-21T04:12:43;17.30;;;8.30;;
5157;SDS011;2598;52.364;9.772;2022-07-21T04:15:09;15.70;;;8.67;;
5157;SDS011;2598;52.364;9.772;2022-07-21T04:17:35;19.73;;;9.47;;
5157;SDS011;2598;52.364;9.772;2022-07-21T04:20:02;15.70;;;8.90;;
5157;SDS011;2598;52.364;9.772;2022-07-21T04:22:28;18.27;;;9.40;;
5157;SDS011;2598;52.364;9.772;2022-07-21T04:24:54;16.70;;;8.37;;
5157;SDS011;2598;52.364;9.772;2022-07-21T04:27:20;20.40;;;8.40;;
5157;SDS011;2598;52.364;9.772;2022-07-21T04:29:46;20.70;;;9.73;;
5157;SDS011;2598;52.364;9.772;2022-07-21T04:32:12;17.83;;;8.40;;
5157;SDS011;2598;52.364;9.772;2022-07-21T04:34:38;18.53;;;8.90;;
5157;SDS011;2598;52.364;9.772;2022-07-21T04:37:04;18.57;;;9.20;;
5157;SDS011;2598;52.364;9.772;2022-07-21T04:39:30;19.13;;;8.77;;
5157;SDS011;2598;52.364;9.772;2022-07-21T04:41:56;15.53;;;8.10;;
5157;SDS011;2598;52.364;9.772;2022-07-21T04:44:22;23.00;;;9.20;;
5157;SDS011;2598;52.364;9.772;2022-07-21T04:46:48;17.80;;;9.07;;
5157;SDS011;2598;52.364;9.772;2022-07-21T04:49:14;18.63;;;8.80;;
5157;SDS011;2598;52.364;9.772;2022-07-21T04:51:41;17.50;;;9.50;;
5157;SDS011;2598;52.364;9.772;2022-07-21T04:54:07;17.30;;;10.00;;
5157;SDS011;2598;52.364;9.772;2022-07-21T04:56:33;18.07;;;8.93;;
5157;SDS011;2598;52.364;9.772;2022-07-21T04:58:59;20.53;;;9.90;;
5157;SDS011;2598;52.364;9.772;2022-07-21T05:01:25;19.40;;;8.23;;
5157;SDS011;2598;52.364;9.772;2022-07-21T05:03:51;19.23;;;9.20;;
5157;SDS011;2598;52.364;9.772;2022-07-21T05:06:17;19.23;;;8.27;;
5157;SDS011;2598;52.364;9.772;2022-07-21T05:08:44;17.97;;;9.30;;
5157;SDS011;2598;52.364;9.772;2022-07-21T05:11:10;15.40;;;8.13;;
5157;SDS011;2598;52.364;9.772;2022-07-21T05:13:36;18.67;;;8.20;;
5157;SDS011;2598;52.364;9.772;2022-07-21T05:16:02;15.33;;;7.53;;
5157;SDS011;2598;52.364;9.772;2022-07-21T05:18:28;20.03;;;9.30;;
5157;SDS011;2598;52.364;9.772;2022-07-21T05:20:54;17.53;;;7.70;;
5157;SDS011;2598;52.364;9.772;2022-07-21T05:23:20;14.90;;;7.97;;
5157;SDS011;2598;52.364;9.772;2022-07-21T05:25:46;14.90;;;8.10;;
5157;SDS011;2598;52.364;9.772;2022-07-21T05:28:12;14.30;;;7.57;;
5157;SDS011;2598;52.364;9.772;2022-07-21T05:30:38;16.13;;;7.27;;
5157;SDS011;2598;52.364;9.772;2022-07-21T05:33:04;16.20;;;7.73;;
5157;SDS011;2598;52.364;9.772;2022-07-21T05:35:30;15.33;;;7.33;;
5157;SDS011;2598;52.364;9.772;2022-07-21T05:37:56;14.47;;;6.53;;
5157;SDS011;2598;52.364;9.772;2022-07-21T05:40:22;13.83;;;6.90;;
5157;SDS011;2598;52.364;9.772;2022-07-21T05:42:48;14.17;;;7.20;;
5157;SDS011;2598;52.364;9.772;2022-07-21T05:45:14;15.00;;;7.17;;
5157;SDS011;2598;52.364;9.772;2022-07-21T05:47:40;13.57;;;6.43;;
5157;SDS011;2598;52.364;9.772;2022-07-21T05:50:07;14.30;;;7.47;;
5157;SDS011;2598;52.364;9.772;2022-07-21T05:52:33;16.60;;;6.83;;
5157;SDS011;2598;52.364;9.772;2022-07-21T05:54:59;16.73;;;6.73;;
5157;SDS011;2598;52.364;9.772;2022-07-21T05:57:25;13.93;;;5.90;;
5157;SDS011;2598;52.364;9.772;2022-07-21T05:59:51;14.13;;;6.43;;
5157;SDS011;2598;52.364;9.772;2022-07-21T06:02:17;11.90;;;5.63;;
5157;SDS011;2598;52.364;9.772;2022-07-21T06:04:43;13.90;;;5.80;;
5157;SDS011;2598;52.364;9.772;2022-07-21T06:07:09;14.90;;;6.10;;
5157;SDS011;2598;52.364;9.772;2022-07-21T06:09:35;11.50;;;4.87;;
5157;SDS011;2598;52.364;9.772;2022-07-21T06:12:01;14.67;;;6.40;;
5157;SDS011;2598;52.364;9.772;2022-07-21T06:14:27;14.23;;;5.70;;
5157;SDS011;2598;52.364;9.772;2022-07-21T06:16:53;12.03;;;4.80;;
5157;SDS011;2598;52.364;9.772;2022-07-21T06:19:20;12.40;;;5.30;;
5157;SDS011;2598;52.364;9.772;2022-07-21T06:21:46;13.83;;;5.20;;
5157;SDS011;2598;52.364;9.772;2022-07-21T06:24:12;12.20;;;4.30;;
5157;SDS011;2598;52.364;9.772;2022-07-21T06:26:38;13.13;;;5.40;;
5157;SDS011;2598;52.364;9.772;2022-07-21T06:29:04;13.50;;;5.87;;
5157;SDS011;2598;52.364;9.772;2022-07-21T06:31:31;12.10;;;5.10;;
5157;SDS011;2598;52.364;9.772;2022-07-21T06:33:57;12.13;;;4.40;;
5157;SDS011;2598;52.364;9.772;2022-07-21T06:36:23;11.63;;;4.67;;
5157;SDS011;2598;52.364;9.772;2022-07-21T06:38:49;13.13;;;5.20;;
5157;SDS011;2598;52.364;9.772;2022-07-21T06:41:15;13.00;;;5.60;;
5157;SDS011;2598;52.364;9.772;2022-07-21T06:43:41;11.10;;;4.33;;
5157;SDS011;2598;52.364;9.772;2022-07-21T06:46:08;10.97;;;4.40;;
5157;SDS011;2598;52.364;9.772;2022-07-21T06:48:34;11.33;;;4.70;;
5157;SDS011;2598;52.364;9.772;2022-07-21T06:51:00;10.03;;;3.90;;
5157;SDS011;2598;52.364;9.772;2022-07-21T06:53:26;9.70;;;3.60;;
5157;SDS011;2598;52.364;9.772;2022-07-21T06:55:52;9.90;;;4.00;;
5157;SDS011;2598;52.364;9.772;2022-07-21T06:58:19;11.50;;;4.30;;
5157;SDS011;2598;52.364;9.772;2022-07-21T07:00:45;11.27;;;4.03;;
5157;SDS011;2598;52.364;9.772;2022-07-21T07:03:12;9.37;;;3.70;;
5157;SDS011;2598;52.364;9.772;2022-07-21T07:05:38;9.17;;;3.27;;
5157;SDS011;2598;52.364;9.772;2022-07-21T07:08:04;9.10;;;3.70;;
5157;SDS011;2598;52.364;9.772;2022-07-21T07:10:30;9.90;;;3.60;;
5157;SDS011;2598;52.364;9.772;2022-07-21T07:12:57;10.23;;;3.70;;
5157;SDS011;2598;52.364;9.772;2022-07-21T07:15:23;10.77;;;3.27;;
5157;SDS011;2598;52.364;9.772;2022-07-21T07:17:50;9.63;;;3.73;;
5157;SDS011;2598;52.364;9.772;2022-07-21T07:20:16;9.93;;;3.50;;
5157;SDS011;2598;52.364;9.772;2022-07-21T07:22:42;9.90;;;3.40;;
5157;SDS011;2598;52.364;9.772;2022-07-21T07:25:08;10.70;;;3.37;;
5157;SDS011;2598;52.364;9.772;2022-07-21T07:27:34;10.00;;;3.43;;
5157;SDS011;2598;52.364;9.772;2022-07-21T07:30:01;11.30;;;3.70;;
5157;SDS011;2598;52.364;9.772;2022-07-21T07:32:27;9.37;;;2.07;;
5157;SDS011;2598;52.364;9.772;2022-07-21T07:34:53;10.63;;;3.00;;
5157;SDS011;2598;52.364;9.772;2022-07-21T07:37:19;8.10;;;2.67;;
5157;SDS011;2598;52.364;9.772;2022-07-21T07:39:45;12.73;;;2.60;;
5157;SDS011;2598;52.364;9.772;2022-07-21T07:42:11;9.00;;;2.77;;
5157;SDS011;2598;52.364;9.772;2022-07-21T07:44:37;8.20;;;2.17;;
5157;SDS011;2598;52.364;9.772;2022-07-21T07:47:03;7.60;;;2.10;;
5157;SDS011;2598;52.364;9.772;2022-07-21T07:49:29;7.97;;;1.90;;
5157;SDS011;2598;52.364;9.772;2022-07-21T07:51:55;8.20;;;2.10;;
5157;SDS011;2598;52.364;9.772;2022-07-21T07:54:21;8.00;;;2.20;;
5157;SDS011;2598;52.364;9.772;2022-07-21T07:56:47;7.63;;;1.83;;
5157;SDS011;2598;52.364;9.772;2022-07-21T07:59:13;7.73;;;1.53;;
5157;SDS011;2598;52.364;9.772;2022-07-21T08:01:39;9.20;;;1.70;;
5157;SDS011;2598;52.364;9.772;2022-07-21T08:04:05;7.63;;;1.80;;
5157;SDS011;2598;52.364;9.772;2022-07-21T08:06:31;10.10;;;2.63;;
5157;SDS011;2598;52.364;9.772;2022-07-21T08:08:57;12.33;;;2.20;;
5157;SDS011;2598;52.364;9.772;2022-07-21T08:11:23;11.90;;;2.80;;
5157;SDS011;2598;52.364;9.772;2022-07-21T08:13:50;8.30;;;1.90;;
5157;SDS011;2598;52.364;9.772;2022-07-21T08:16:16;9.30;;;2.40;;
5157;SDS011;2598;52.364;9.772;2022-07-21T08:18:42;10.37;;;2.53;;
5157;SDS011;2598;52.364;9.772;2022-07-21T08:21:09;8.93;;;2.23;;
5157;SDS011;2598;52.364;9.772;2022-07-21T08:23:35;8.23;;;1.60;;
5157;SDS011;2598;52.364;9.772;2022-07-21T08:26:01;8.30;;;2.10;;
5157;SDS011;2598;52.364;9.772;2022-07-21T08:28:27;7.87;;;1.97;;
5157;SDS011;2598;52.364;9.772;2022-07-21T08:30:53;9.20;;;2.00;;
5157;SDS011;2598;52.364;9.772;2022-07-21T08:33:19;10.07;;;2.33;;
5157;SDS011;2598;52.364;9.772;2022-07-21T08:35:45;8.33;;;2.30;;
5157;SDS011;2598;52.364;9.772;2022-07-21T08:38:11;10.00;;;1.87;;
5157;SDS011;2598;52.364;9.772;2022-07-21T08:40:38;8.37;;;2.13;;
5157;SDS011;2598;52.364;9.772;2022-07-21T08:43:05;8.50;;;1.77;;
5157;SDS011;2598;52.364;9.772;2022-07-21T08:45:33;9.97;;;2.27;;
5157;SDS011;2598;52.364;9.772;2022-07-21T08:47:59;10.03;;;2.10;;
5157;SDS011;2598;52.364;9.772;2022-07-21T08:50:27;8.63;;;2.10;;
5157;SDS011;2598;52.364;9.772;2022-07-21T08:52:53;7.43;;;1.70;;
5157;SDS011;2598;52.364;9.772;2022-07-21T08:55:19;8.20;;;1.97;;
5157;SDS011;2598;52.364;9.772;2022-07-21T08:57:45;7.40;;;1.60;;
5157;SDS011;2598;52.364;9.772;2022-07-21T09:00:11;10.07;;;1.73;;
5157;SDS011;2598;52.364;9.772;2022-07-21T09:02:38;8.47;;;1.80;;
5157;SDS011;2598;52.364;9.772;2022-07-21T09:05:05;8.70;;;2.00;;
5157;SDS011;2598;52.364;9.772;2022-07-21T09:07:52;7.17;;;1.70;;
5157;SDS011;2598;52.364;9.772;2022-07-21T09:10:23;8.57;;;2.30;;
5157;SDS011;2598;52.364;9.772;2022-07-21T09:12:54;8.57;;;2.13;;
5157;SDS011;2598;52.364;9.772;2022-07-21T09:15:21;8.27;;;2.30;;
5157;SDS011;2598;52.364;9.772;2022-07-21T09:18:02;8.23;;;2.70;;
5157;SDS011;2598;52.364;9.772;2022-07-21T09:20:29;9.40;;;3.23;;
5157;SDS011;2598;52.364;9.772;2022-07-21T09:23:05;16.70;;;3.80;;
5157;SDS011;2598;52.364;9.772;2022-07-21T09:28:33;10.37;;;3.60;;
5157;SDS011;2598;52.364;9.772;2022-07-21T09:30:54;10.57;;;4.00;;
5157;SDS011;2598;52.364;9.772;2022-07-21T09:33:22;10.77;;;3.80;;
5157;SDS011;2598;52.364;9.772;2022-07-21T09:36:30;11.93;;;5.73;;
5157;SDS011;2598;52.364;9.772;2022-07-21T09:38:39;11.77;;;6.33;;
5157;SDS011;2598;52.364;9.772;2022-07-21T09:41:14;12.80;;;7.27;;
5157;SDS011;2598;52.364;9.772;2022-07-21T09:43:44;11.90;;;6.40;;
5157;SDS011;2598;52.364;9.772;2022-07-21T09:46:20;11.60;;;6.60;;
5157;SDS011;2598;52.364;9.772;2022-07-21T09:48:47;14.20;;;7.43;;
5157;SDS011;2598;52.364;9.772;2022-07-21T09:53:50;13.30;;;7.10;;
5157;SDS011;2598;52.364;9.772;2022-07-21T09:56:17;12.70;;;7.30;;
5157;SDS011;2598;52.364;9.772;2022-07-21T09:58:45;14.23;;;8.40;;
5157;SDS011;2598;52.364;9.772;2022-07-21T10:01:11;13.37;;;8.30;;
5157;SDS011;2598;52.364;9.772;2022-07-21T10:03:37;14.20;;;7.67;;
5157;SDS011;2598;52.364;9.772;2022-07-21T10:06:04;14.63;;;7.70;;
5157;SDS011;2598;52.364;9.772;2022-07-21T10:08:30;15.10;;;7.63;;
5157;SDS011;2598;52.364;9.772;2022-07-21T10:10:58;13.37;;;7.33;;
5157;SDS011;2598;52.364;9.772;2022-07-21T10:13:24;13.80;;;8.40;;
5157;SDS011;2598;52.364;9.772;2022-07-21T10:15:50;13.63;;;8.37;;
5157;SDS011;2598;52.364;9.772;2022-07-21T10:18:16;13.90;;;8.67;;
5157;SDS011;2598;52.364;9.772;2022-07-21T10:20:43;15.83;;;7.80;;
5157;SDS011;2598;52.364;9.772;2022-07-21T10:25:38;14.90;;;7.33;;
5157;SDS011;2598;52.364;9.772;2022-07-21T10:30:41;14.10;;;7.93;;
5157;SDS011;2598;52.364;9.772;2022-07-21T10:33:08;14.83;;;8.50;;
5157;SDS011;2598;52.364;9.772;2022-07-21T10:35:34;13.83;;;8.37;;
5157;SDS011;2598;52.364;9.772;2022-07-21T10:38:00;13.73;;;7.73;;
5157;SDS011;2598;52.364;9.772;2022-07-21T10:45:32;12.77;;;7.53;;
5157;SDS011;2598;52.364;9.772;2022-07-21T10:47:59;13.57;;;7.40;;
5157;SDS011;2598;52.364;9.772;2022-07-21T10:50:32;13.50;;;7.70;;
5157;SDS011;2598;52.364;9.772;2022-07-21T10:53:00;13.40;;;7.80;;
5157;SDS011;2598;52.364;9.772;2022-07-21T10:55:27;13.97;;;7.47;;
5157;SDS011;2598;52.364;9.772;2022-07-21T10:58:13;12.90;;;6.97;;
5157;SDS011;2598;52.364;9.772;2022-07-21T11:03:24;13.07;;;6.93;;
5157;SDS011;2598;52.364;9.772;2022-07-21T11:08:37;13.23;;;7.10;;
5157;SDS011;2598;52.364;9.772;2022-07-21T11:11:07;12.00;;;7.30;;
5157;SDS011;2598;52.364;9.772;2022-07-21T11:16:21;13.90;;;8.43;;
5157;SDS011;2598;52.364;9.772;2022-07-21T11:18:47;15.03;;;7.57;;
5157;SDS011;2598;52.364;9.772;2022-07-21T11:21:15;16.00;;;7.57;;
5157;SDS011;2598;52.364;9.772;2022-07-21T11:23:43;13.37;;;7.50;;
5157;SDS011;2598;52.364;9.772;2022-07-21T11:26:11;15.13;;;7.80;;
5157;SDS011;2598;52.364;9.772;2022-07-21T11:28:37;12.80;;;7.13;;
5157;SDS011;2598;52.364;9.772;2022-07-21T11:33:37;12.27;;;6.97;;
5157;SDS011;2598;52.364;9.772;2022-07-21T11:36:03;12.13;;;6.57;;
5157;SDS011;2598;52.364;9.772;2022-07-21T11:38:29;13.80;;;6.60;;
5157;SDS011;2598;52.364;9.772;2022-07-21T11:43:41;13.80;;;6.53;;
5157;SDS011;2598;52.364;9.772;2022-07-21T11:46:07;14.33;;;6.40;;
5157;SDS011;2598;52.364;9.772;2022-07-21T11:48:33;13.03;;;6.03;;
5157;SDS011;2598;52.364;9.772;2022-07-21T11:51:00;13.50;;;5.90;;
5157;SDS011;2598;52.364;9.772;2022-07-21T11:53:26;12.20;;;6.40;;
5157;SDS011;2598;52.364;9.772;2022-07-21T11:55:52;12.10;;;6.33;;
5157;SDS011;2598;52.364;9.772;2022-07-21T11:58:19;11.80;;;6.33;;
5157;SDS011;2598;52.364;9.772;2022-07-21T12:00:45;10.40;;;4.83;;
5157;SDS011;2598;52.364;9.772;2022-07-21T12:03:13;9.87;;;4.37;;
5157;SDS011;2598;52.364;9.772;2022-07-21T12:05:40;9.40;;;4.40;;
5157;SDS011;2598;52.364;9.772;2022-07-21T12:08:06;11.83;;;5.23;;
5157;SDS011;2598;52.364;9.772;2022-07-21T12:10:32;10.30;;;4.80;;
5157;SDS011;2598;52.364;9.772;2022-07-21T12:12:59;11.00;;;4.90;;
5157;SDS011;2598;52.364;9.772;2022-07-21T12:15:27;11.63;;;5.30;;
5157;SDS011;2598;52.364;9.772;2022-07-21T12:17:56;10.70;;;4.90;;
5157;SDS011;2598;52.364;9.772;2022-07-21T12:20:24;12.33;;;4.93;;
5157;SDS011;2598;52.364;9.772;2022-07-21T12:22:50;9.97;;;5.00;;
5157;SDS011;2598;52.364;9.772;2022-07-21T12:25:17;12.23;;;6.00;;
5157;SDS011;2598;52.364;9.772;2022-07-21T12:27:44;11.90;;;5.33;;
5157;SDS011;2598;52.364;9.772;2022-07-21T12:30:28;11.50;;;4.53;;
5157;SDS011;2598;52.364;9.772;2022-07-21T12:32:54;10.87;;;4.70;;
5157;SDS011;2598;52.364;9.772;2022-07-21T12:35:27;11.33;;;5.43;;
5157;SDS011;2598;52.364;9.772;2022-07-21T12:37:57;12.17;;;5.13;;
5157;SDS011;2598;52.364;9.772;2022-07-21T12:40:24;11.60;;;5.80;;
5157;SDS011;2598;52.364;9.772;2022-07-21T12:42:51;12.93;;;5.07;;
5157;SDS011;2598;52.364;9.772;2022-07-21T12:45:28;9.87;;;4.57;;
5157;SDS011;2598;52.364;9.772;2022-07-21T12:48:06;11.70;;;5.30;;
5157;SDS011;2598;52.364;9.772;2022-07-21T12:50:32;10.33;;;5.00;;
5157;SDS011;2598;52.364;9.772;2022-07-21T12:52:58;10.90;;;5.40;;
5157;SDS011;2598;52.364;9.772;2022-07-21T12:55:24;10.83;;;5.47;;
5157;SDS011;2598;52.364;9.772;2022-07-21T12:57:50;12.30;;;5.60;;
5157;SDS011;2598;52.364;9.772;2022-07-21T13:00:16;10.90;;;5.67;;
5157;SDS011;2598;52.364;9.772;2022-07-21T13:02:46;12.93;;;5.83;;
5157;SDS011;2598;52.364;9.772;2022-07-21T13:05:12;11.20;;;5.60;;
5157;SDS011;2598;52.364;9.772;2022-07-21T13:07:38;14.23;;;5.60;;
5157;SDS011;2598;52.364;9.772;2022-07-21T13:10:04;14.73;;;6.83;;
5157;SDS011;2598;52.364;9.772;2022-07-21T13:12:30;13.70;;;6.13;;
5157;SDS011;2598;52.364;9.772;2022-07-21T13:14:56;13.33;;;6.13;;
5157;SDS011;2598;52.364;9.772;2022-07-21T13:17:22;13.63;;;6.40;;
5157;SDS011;2598;52.364;9.772;2022-07-21T13:19:48;11.10;;;5.70;;
5157;SDS011;2598;52.364;9.772;2022-07-21T13:22:14;11.93;;;5.30;;
5157;SDS011;2598;52.364;9.772;2022-07-21T13:24:40;12.43;;;5.60;;
5157;SDS011;2598;52.364;9.772;2022-07-21T13:27:06;11.30;;;5.13;;
5157;SDS011;2598;52.364;9.772;2022-07-21T13:29:33;12.10;;;5.60;;
5157;SDS011;2598;52.364;9.772;2022-07-21T13:32:00;10.50;;;4.50;;
5157;SDS011;2598;52.364;9.772;2022-07-21T13:34:26;11.47;;;4.53;;
5157;SDS011;2598;52.364;9.772;2022-07-21T13:36:52;12.40;;;4.10;;
5157;SDS011;2598;52.364;9.772;2022-07-21T13:39:18;9.30;;;4.10;;
5157;SDS011;2598;52.364;9.772;2022-07-21T13:41:45;6.90;;;1.70;;
5157;SDS011;2598;52.364;9.772;2022-07-21T13:44:12;8.40;;;1.97;;
5157;SDS011;2598;52.364;9.772;2022-07-21T13:46:38;8.30;;;1.77;;
5157;SDS011;2598;52.364;9.772;2022-07-21T13:49:03;7.70;;;2.03;;
5157;SDS011;2598;52.364;9.772;2022-07-21T13:51:29;9.70;;;2.20;;
5157;SDS011;2598;52.364;9.772;2022-07-21T13:53:55;7.10;;;1.90;;
5157;SDS011;2598;52.364;9.772;2022-07-21T13:56:21;8.30;;;2.53;;
5157;SDS011;2598;52.364;9.772;2022-07-21T13:58:48;8.73;;;2.63;;
5157;SDS011;2598;52.364;9.772;2022-07-21T14:01:14;8.80;;;2.60;;
5157;SDS011;2598;52.364;9.772;2022-07-21T14:03:40;7.60;;;2.50;;
5157;SDS011;2598;52.364;9.772;2022-07-21T14:06:06;8.23;;;2.63;;
5157;SDS011;2598;52.364;9.772;2022-07-21T14:08:32;8.50;;;2.50;;
5157;SDS011;2598;52.364;9.772;2022-07-21T14:10:58;8.00;;;2.50;;
5157;SDS011;2598;52.364;9.772;2022-07-21T14:13:24;8.63;;;3.17;;
5157;SDS011;2598;52.364;9.772;2022-07-21T14:15:50;8.73;;;3.13;;
5157;SDS011;2598;52.364;9.772;2022-07-21T14:18:16;8.27;;;3.20;;
5157;SDS011;2598;52.364;9.772;2022-07-21T14:20:42;8.27;;;2.80;;
5157;SDS011;2598;52.364;9.772;2022-07-21T14:23:08;8.53;;;2.50;;
5157;SDS011;2598;52.364;9.772;2022-07-21T14:25:34;8.90;;;2.77;;
5157;SDS011;2598;52.364;9.772;2022-07-21T14:28:00;8.30;;;3.00;;
5157;SDS011;2598;52.364;9.772;2022-07-21T14:30:27;7.63;;;2.53;;
5157;SDS011;2598;52.364;9.772;2022-07-21T14:32:54;8.77;;;3.20;;
5157;SDS011;2598;52.364;9.772;2022-07-21T14:35:20;9.67;;;2.80;;
5157;SDS011;2598;52.364;9.772;2022-07-21T14:37:47;8.33;;;2.50;;
5157;SDS011;2598;52.364;9.772;2022-07-21T14:40:13;9.60;;;2.70;;
5157;SDS011;2598;52.364;9.772;2022-07-21T14:42:39;9.37;;;2.80;;
5157;SDS011;2598;52.364;9.772;2022-07-21T14:45:06;8.73;;;2.37;;
5157;SDS011;2598;52.364;9.772;2022-07-21T14:47:32;8.60;;;2.70;;
5157;SDS011;2598;52.364;9.772;2022-07-21T14:49:58;7.30;;;2.10;;
5157;SDS011;2598;52.364;9.772;2022-07-21T14:52:25;8.20;;;2.63;;
5157;SDS011;2598;52.364;9.772;2022-07-21T14:54:51;7.87;;;2.47;;
5157;SDS011;2598;52.364;9.772;2022-07-21T14:57:17;7.40;;;2.03;;
5157;SDS011;2598;52.364;9.772;2022-07-21T14:59:43;7.63;;;1.60;;
5157;SDS011;2598;52.364;9.772;2022-07-21T15:02:09;7.33;;;1.90;;
5157;SDS011;2598;52.364;9.772;2022-07-21T15:04:35;6.70;;;1.50;;
5157;SDS011;2598;52.364;9.772;2022-07-21T15:07:01;8.27;;;1.37;;
5157;SDS011;2598;52.364;9.772;2022-07-21T15:09:27;8.43;;;1.80;;
5157;SDS011;2598;52.364;9.772;2022-07-21T15:11:53;7.20;;;1.60;;
5157;SDS011;2598;52.364;9.772;2022-07-21T15:14:19;7.00;;;1.47;;
5157;SDS011;2598;52.364;9.772;2022-07-21T15:16:45;7.23;;;1.80;;
5157;SDS011;2598;52.364;9.772;2022-07-21T15:19:11;8.37;;;1.90;;
5157;SDS011;2598;52.364;9.772;2022-07-21T15:21:37;7.30;;;2.00;;
5157;SDS011;2598;52.364;9.772;2022-07-21T15:24:03;9.37;;;2.27;;
5157;SDS011;2598;52.364;9.772;2022-07-21T15:26:29;7.20;;;2.07;;
5157;SDS011;2598;52.364;9.772;2022-07-21T15:28:55;7.93;;;1.90;;
5157;SDS011;2598;52.364;9.772;2022-07-21T15:31:23;9.37;;;2.10;;